createdAt,value
2023-02-17T00:01:54.369Z,47
2023-02-17T00:07:00.458Z,47
2023-02-17T00:12:06.557Z,47
2023-02-17T00:17:11.658Z,47
2023-02-17T00:22:17.748Z,47
2023-02-17T00:27:23.892Z,47
2023-02-17T00:32:29.928Z,47
2023-02-17T00:37:36.011Z,47.5
2023-02-17T00:42:42.105Z,47.5
2023-02-17T00:47:48.189Z,47.5
2023-02-17T00:52:54.277Z,47.5
2023-02-17T00:58:00.370Z,47.5
2023-02-17T01:03:06.460Z,47.5
2023-02-17T01:08:12.560Z,47.5
2023-02-17T01:13:18.637Z,47.5
2023-02-17T01:18:24.738Z,47.5
2023-02-17T01:23:30.814Z,47.5
2023-02-17T01:28:36.905Z,47.5
2023-02-17T01:33:43.059Z,47.5
2023-02-17T01:38:49.073Z,47.5
2023-02-17T01:43:55.164Z,47.5
2023-02-17T01:49:01.252Z,47.5
2023-02-17T01:54:07.346Z,47.5
2023-02-17T01:59:13.429Z,47.5
2023-02-17T02:04:19.522Z,47.5
2023-02-17T02:09:25.602Z,47.5
2023-02-17T02:14:31.709Z,47.5
2023-02-17T02:19:37.794Z,47.5
2023-02-17T02:24:43.889Z,47.5
2023-02-17T02:29:48.998Z,47.5
2023-02-17T02:34:55.088Z,47.5
2023-02-17T02:40:01.173Z,47.5
2023-02-17T02:45:07.278Z,47.5
2023-02-17T02:50:13.347Z,47.5
2023-02-17T02:55:19.489Z,47.5
2023-02-17T03:00:25.529Z,47.5
2023-02-17T03:05:31.620Z,47.5
2023-02-17T03:10:37.716Z,47.5
2023-02-17T03:15:43.797Z,47.5
2023-02-17T03:20:49.882Z,47.5
2023-02-17T03:25:56.035Z,47.5
2023-02-17T03:31:02.127Z,47.5
2023-02-17T03:36:08.144Z,47.5
2023-02-17T03:41:13.278Z,47.5
2023-02-17T03:46:19.332Z,47.5
2023-02-17T03:51:25.497Z,47.5
2023-02-17T03:56:31.548Z,47.5
2023-02-17T04:01:37.609Z,47.5
2023-02-17T04:06:43.684Z,47.5
2023-02-17T04:11:49.783Z,47.5
2023-02-17T04:16:55.867Z,47.5
2023-02-17T04:22:01.960Z,47.5
2023-02-17T04:27:08.068Z,47.5
2023-02-17T04:32:14.137Z,47.5
2023-02-17T04:37:20.220Z,47.5
2023-02-17T04:42:26.408Z,47.5
2023-02-17T04:47:32.407Z,47.5
2023-02-17T04:52:38.488Z,47.5
2023-02-17T04:57:44.582Z,47.5
2023-02-17T05:02:50.670Z,47.5
2023-02-17T05:07:55.792Z,47.5
2023-02-17T05:13:01.876Z,47.5
2023-02-17T05:18:08.047Z,47.5
2023-02-17T05:23:14.078Z,47.5
2023-02-17T05:28:20.148Z,47.5
2023-02-17T05:33:26.230Z,47.5
2023-02-17T05:38:32.319Z,48
2023-02-17T05:43:38.410Z,48
2023-02-17T05:48:44.562Z,48
2023-02-17T05:53:50.614Z,48
2023-02-17T05:58:56.686Z,48
2023-02-17T06:04:02.790Z,48
2023-02-17T06:09:08.869Z,48
2023-02-17T06:14:14.953Z,49
2023-02-17T06:24:27.140Z,53.5
2023-02-17T06:29:33.217Z,55
2023-02-17T06:34:39.347Z,55.5
2023-02-17T06:39:45.398Z,56.5
2023-02-17T06:44:51.490Z,57
2023-02-17T06:49:57.583Z,57
2023-02-17T06:55:03.661Z,57.5
2023-02-17T07:00:09.867Z,57.5
2023-02-17T07:05:14.864Z,57.5
2023-02-17T07:10:20.970Z,58
2023-02-17T07:15:27.041Z,58
2023-02-17T07:20:33.169Z,58.5
2023-02-17T07:25:39.235Z,58.5
2023-02-17T07:30:45.310Z,59
2023-02-17T07:35:51.395Z,59
2023-02-17T07:40:57.489Z,59
2023-02-17T07:46:03.564Z,59
2023-02-17T07:51:09.667Z,59.5
2023-02-17T07:56:15.882Z,59.5
2023-02-17T08:01:21.861Z,59.5
2023-02-17T08:06:28.146Z,59.5
2023-02-17T08:11:34.186Z,60
2023-02-17T08:16:40.100Z,60
2023-02-17T08:21:46.185Z,60
2023-02-17T08:26:51.307Z,60
2023-02-17T08:31:57.408Z,60
2023-02-17T08:37:03.555Z,60.5
2023-02-17T08:42:09.584Z,60.5
2023-02-17T08:47:15.801Z,61
2023-02-17T08:52:21.764Z,61
2023-02-17T09:02:34.036Z,61.5
2023-02-17T09:07:40.194Z,62
2023-02-17T09:12:46.274Z,62
2023-02-17T09:17:52.202Z,62
2023-02-17T09:22:58.376Z,62.5
2023-02-17T09:28:04.385Z,62.5
2023-02-17T09:33:10.462Z,62.5
2023-02-17T09:38:16.563Z,63
2023-02-17T09:43:22.681Z,63
2023-02-17T09:48:28.732Z,63
2023-02-17T09:53:34.816Z,63
2023-02-17T09:58:40.909Z,63.5
2023-02-17T10:03:46.999Z,63.5
2023-02-17T10:08:53.081Z,63.5
2023-02-17T10:13:59.176Z,63.5
2023-02-17T10:19:05.256Z,64
2023-02-17T10:24:11.357Z,64
2023-02-17T10:29:17.455Z,64
2023-02-17T10:34:23.593Z,64
2023-02-17T10:39:29.758Z,64.5
2023-02-17T10:44:35.882Z,64.5
2023-02-17T10:49:42.038Z,64.5
2023-02-17T10:54:48.212Z,64.5
2023-02-17T10:59:54.359Z,64.5
2023-02-17T11:05:00.523Z,65
2023-02-17T11:10:06.659Z,65
2023-02-17T11:15:12.793Z,65
2023-02-17T11:20:19.066Z,65
2023-02-17T11:25:25.114Z,65
2023-02-17T11:30:31.249Z,65
2023-02-17T11:35:36.456Z,65
2023-02-17T11:40:42.575Z,65
2023-02-17T11:45:48.585Z,65
2023-02-17T11:50:54.699Z,65
2023-02-17T11:56:00.764Z,65
2023-02-17T12:01:06.852Z,65
2023-02-17T12:06:12.943Z,65.5
2023-02-17T12:11:19.027Z,65.5
2023-02-17T12:16:25.121Z,65.5
2023-02-17T12:21:31.216Z,65.5
2023-02-17T12:26:37.298Z,65.5
2023-02-17T12:31:43.462Z,65.5
2023-02-17T12:36:49.476Z,65.5
2023-02-17T12:41:55.572Z,65.5
2023-02-17T12:47:01.650Z,65.5
2023-02-17T12:52:07.784Z,66
2023-02-17T12:57:13.829Z,66
2023-02-17T13:02:19.927Z,66
2023-02-17T13:07:26.010Z,66
2023-02-17T13:12:32.123Z,66
2023-02-17T13:22:44.287Z,66.5
2023-02-17T13:27:50.370Z,66.5
2023-02-17T13:32:56.464Z,66.5
2023-02-17T13:38:02.619Z,66.5
2023-02-17T13:43:08.706Z,66.5
2023-02-17T13:48:14.889Z,66.5
2023-02-17T13:53:21.008Z,67
2023-02-17T13:58:26.156Z,67
2023-02-17T14:03:32.242Z,67
2023-02-17T14:08:38.340Z,67
2023-02-17T14:13:43.452Z,67
2023-02-17T14:18:49.546Z,67
2023-02-17T14:23:55.613Z,67
2023-02-17T14:29:01.713Z,67
2023-02-17T14:34:07.795Z,67
2023-02-17T14:39:13.894Z,67
2023-02-17T14:44:19.983Z,67
2023-02-17T14:49:26.142Z,67.5
2023-02-17T14:54:32.158Z,67.5
2023-02-17T14:59:38.246Z,68
2023-02-17T15:04:44.328Z,68.5
2023-02-17T15:09:50.418Z,69.5
2023-02-17T15:14:56.529Z,69.5
2023-02-17T15:20:02.600Z,70
2023-02-17T15:25:07.696Z,70
2023-02-17T15:30:13.787Z,70.5
2023-02-17T15:35:19.925Z,70.5
2023-02-17T15:40:25.963Z,70.5
2023-02-17T15:45:32.046Z,70.5
2023-02-17T15:50:38.191Z,71
2023-02-17T15:55:44.221Z,71
2023-02-17T16:00:50.316Z,71
2023-02-17T16:05:56.396Z,71
2023-02-17T16:11:02.539Z,71
2023-02-17T16:16:08.576Z,71
2023-02-17T16:21:14.670Z,71
2023-02-17T16:26:20.768Z,71
2023-02-17T16:31:26.867Z,71
2023-02-17T16:36:32.025Z,71
2023-02-17T16:41:38.067Z,70.5
2023-02-17T16:46:43.178Z,70.5
2023-02-17T16:51:49.273Z,70
2023-02-17T16:56:55.368Z,69.5
2023-02-17T17:02:01.440Z,69.5
2023-02-17T17:07:07.527Z,69.5
2023-02-17T17:12:13.643Z,69
2023-02-17T17:17:19.697Z,69.5
2023-02-17T17:22:25.809Z,69
2023-02-17T17:27:31.898Z,69
2023-02-17T17:32:37.962Z,69
2023-02-17T17:37:44.055Z,68.5
2023-02-17T17:42:50.173Z,68.5
2023-02-17T17:47:56.242Z,68
2023-02-17T17:53:02.334Z,68
2023-02-17T17:58:07.429Z,68
2023-02-17T18:03:13.525Z,67.5
2023-02-17T18:08:19.615Z,67
2023-02-17T18:13:25.755Z,66.5
2023-02-17T18:18:31.811Z,66.5
2023-02-17T18:23:37.881Z,66
2023-02-17T18:28:42.986Z,66
2023-02-17T18:33:49.080Z,66
2023-02-17T18:38:55.184Z,65.5
2023-02-17T18:44:00.287Z,65.5
2023-02-17T18:49:06.370Z,65.5
2023-02-17T18:54:12.481Z,65
2023-02-17T18:59:17.600Z,65
2023-02-17T19:04:23.665Z,65
2023-02-17T19:09:29.791Z,65
2023-02-17T19:14:35.912Z,65
2023-02-17T19:19:41.955Z,65
2023-02-17T19:24:47.986Z,65
2023-02-17T19:29:54.084Z,64.5
2023-02-17T19:35:00.268Z,64.5
2023-02-17T19:40:06.270Z,64.5
2023-02-17T19:45:12.465Z,64.5
2023-02-17T19:50:18.509Z,64.5
2023-02-17T19:55:24.531Z,64
2023-02-17T20:00:30.666Z,64
2023-02-17T20:05:36.709Z,64
2023-02-17T20:10:42.860Z,64
2023-02-17T20:15:48.971Z,64
2023-02-17T20:20:54.972Z,64
2023-02-17T20:26:01.061Z,63.5
2023-02-17T20:31:07.167Z,63.5
2023-02-17T20:36:13.278Z,63.5
2023-02-17T20:41:19.407Z,63.5
2023-02-17T20:46:25.438Z,63.5
2023-02-17T20:51:31.519Z,63.5
2023-02-17T20:56:37.650Z,63
2023-02-17T21:01:43.703Z,63
2023-02-17T21:06:49.781Z,63
2023-02-17T21:11:55.932Z,63
2023-02-17T21:17:02.005Z,63
2023-02-17T21:22:08.075Z,63
2023-02-17T21:27:14.139Z,62.5
2023-02-17T21:32:20.263Z,62.5
2023-02-17T21:37:26.324Z,62.5
2023-02-17T21:42:32.401Z,62.5
2023-02-17T21:47:38.510Z,62.5
2023-02-17T21:52:44.588Z,62.5
2023-02-17T21:57:50.688Z,62
2023-02-17T22:02:56.771Z,62
2023-02-17T22:08:02.920Z,62
2023-02-17T22:13:09.064Z,62
2023-02-17T22:18:15.299Z,62
2023-02-17T22:23:21.465Z,62
2023-02-17T22:28:27.507Z,62
2023-02-17T22:33:33.656Z,61.5
2023-02-17T22:38:39.876Z,61.5
2023-02-17T22:43:45.970Z,61.5
2023-02-17T22:48:52.170Z,61.5
2023-02-17T22:53:58.407Z,61.5
2023-02-17T22:59:04.474Z,61.5
2023-02-17T23:04:10.568Z,61.5
2023-02-17T23:09:16.830Z,61.5
2023-02-17T23:14:22.991Z,61
2023-02-17T23:19:29.264Z,61
2023-02-17T23:24:35.519Z,61
2023-02-17T23:29:41.856Z,61
2023-02-17T23:34:48.037Z,61
2023-02-17T23:39:54.308Z,61
2023-02-17T23:45:00.573Z,60.5
2023-02-17T23:50:06.862Z,60.5
2023-02-17T23:55:13.099Z,60.5
